Time;durP1;ratioP1;P1;durP2;ratioP2;P2;SDS_P1;SDS_P2;PMS_P1;PMS_P2;Temp;Humidity;BMP_temperature;BMP_pressure;BME280_temperature;BME280_humidity;BME280_pressure;Samples;Min_cycle;Max_cycle;Signal;HPM_P1;HPM_P2
2022/07/09 00:00:13;;;;;;;1.40;1.30;;;24.40;52.50;;;;;;5087961;28;20044;-88
2022/07/09 00:02:39;;;;;;;2.97;1.83;;;24.30;52.50;;;;;;5076682;28;20020;-86
2022/07/09 00:05:05;;;;;;;2.10;1.52;;;24.30;52.50;;;;;;5094972;28;20019;-84
2022/07/09 00:07:31;;;;;;;2.53;1.80;;;24.30;52.60;;;;;;5060099;28;20130;-84
2022/07/09 00:09:57;;;;;;;3.67;2.10;;;24.30;52.60;;;;;;5094316;28;20028;-85
2022/07/09 00:12:23;;;;;;;2.78;1.75;;;24.20;52.60;;;;;;5079241;28;20031;-85
2022/07/09 00:14:50;;;;;;;2.47;1.88;;;24.20;52.70;;;;;;5086454;28;20073;-85
2022/07/09 00:17:16;;;;;;;3.08;2.05;;;24.20;52.70;;;;;;5079695;28;20509;-84
2022/07/09 00:19:42;;;;;;;3.38;1.95;;;24.10;52.70;;;;;;5072679;28;20137;-84
2022/07/09 00:22:08;;;;;;;2.35;1.70;;;24.10;52.80;;;;;;5096162;28;20055;-85
2022/07/09 00:24:33;;;;;;;2.83;1.73;;;24.00;52.80;;;;;;5094658;28;20782;-84
2022/07/09 00:26:59;;;;;;;2.88;1.73;;;24.00;52.80;;;;;;5072901;28;20028;-84
2022/07/09 00:29:25;;;;;;;2.67;2.05;;;24.00;52.80;;;;;;5108564;28;20035;-85
2022/07/09 00:31:51;;;;;;;4.47;2.15;;;23.90;52.80;;;;;;5118544;27;20480;-84
2022/07/09 00:34:16;;;;;;;3.63;2.13;;;23.90;52.90;;;;;;5059578;28;20032;-84
2022/07/09 00:36:42;;;;;;;2.97;2.03;;;23.90;52.90;;;;;;5090871;28;20111;-84
2022/07/09 00:39:08;;;;;;;3.35;2.17;;;23.80;52.90;;;;;;5096890;28;20028;-84
2022/07/09 00:41:33;;;;;;;2.67;1.90;;;23.80;53.00;;;;;;5093769;28;20103;-84
2022/07/09 00:43:59;;;;;;;3.28;2.03;;;23.80;53.00;;;;;;5096764;28;20039;-84
2022/07/09 00:46:25;;;;;;;2.38;1.90;;;23.70;53.00;;;;;;5080279;28;20023;-85
2022/07/09 00:48:51;;;;;;;3.95;2.17;;;23.70;53.00;;;;;;5062028;28;20123;-85
2022/07/09 00:51:20;;;;;;;2.22;1.67;;;23.70;53.10;;;;;;5087048;28;20061;-84
2022/07/09 00:53:48;;;;;;;2.70;1.92;;;23.60;53.10;;;;;;5087755;28;20088;-84
2022/07/09 00:56:15;;;;;;;2.08;1.77;;;23.60;53.20;;;;;;5096309;28;20034;-85
2022/07/09 00:58:43;;;;;;;2.88;1.80;;;23.60;53.20;;;;;;5113501;28;20015;-84
2022/07/09 01:01:09;;;;;;;2.80;2.17;;;23.60;53.30;;;;;;5110083;28;20036;-89
2022/07/09 01:03:35;;;;;;;3.22;2.10;;;23.50;53.30;;;;;;5053320;28;20032;-85
2022/07/09 01:06:01;;;;;;;3.17;2.03;;;23.50;53.30;;;;;;5075772;28;20115;-85
2022/07/09 01:08:26;;;;;;;2.92;2.08;;;23.50;53.40;;;;;;5076012;28;20060;-89
2022/07/09 01:10:54;;;;;;;2.55;2.03;;;23.40;53.40;;;;;;5057045;28;20057;-85
2022/07/09 01:13:19;;;;;;;3.00;2.00;;;23.30;53.40;;;;;;5100380;28;20032;-85
2022/07/09 01:15:45;;;;;;;3.20;2.17;;;23.30;53.50;;;;;;5113689;28;20028;-84
2022/07/09 01:18:12;;;;;;;3.38;2.00;;;23.30;53.50;;;;;;5079301;28;20450;-85
2022/07/09 01:20:38;;;;;;;2.65;2.05;;;23.30;53.50;;;;;;5074453;28;20032;-85
2022/07/09 01:23:04;;;;;;;2.72;2.10;;;23.30;53.60;;;;;;5056978;28;20464;-85
2022/07/09 01:25:41;;;;;;;4.50;2.30;;;23.20;53.60;;;;;;5077507;28;20031;-84
2022/07/09 01:28:09;;;;;;;4.10;2.10;;;23.20;53.70;;;;;;5077605;28;20157;-85
2022/07/09 01:30:37;;;;;;;3.10;1.85;;;23.20;53.70;;;;;;5088200;28;20491;-85
2022/07/09 01:33:03;;;;;;;3.38;2.00;;;23.10;53.70;;;;;;5100944;28;20031;-85
2022/07/09 01:35:29;;;;;;;2.97;1.98;;;23.10;53.80;;;;;;5089273;28;20024;-85
2022/07/09 01:37:55;;;;;;;2.67;1.95;;;23.10;53.80;;;;;;5094854;28;20031;-85
2022/07/09 01:40:22;;;;;;;3.22;2.00;;;23.00;53.80;;;;;;5073703;28;20048;-85
2022/07/09 01:42:50;;;;;;;3.00;2.00;;;23.00;53.80;;;;;;5074483;28;20050;-85
2022/07/09 01:45:16;;;;;;;3.65;2.38;;;23.00;53.90;;;;;;5074603;28;20027;-84
2022/07/09 01:47:43;;;;;;;3.97;2.00;;;23.00;53.90;;;;;;5088213;28;20012;-84
2022/07/09 01:50:09;;;;;;;2.40;1.95;;;22.90;53.90;;;;;;5110408;28;20039;-86
2022/07/09 01:52:35;;;;;;;2.85;2.13;;;22.90;54.00;;;;;;5086328;28;20023;-85
2022/07/09 01:55:01;;;;;;;2.63;1.90;;;22.80;54.00;;;;;;5062506;28;20024;-84
2022/07/09 01:57:27;;;;;;;3.08;2.13;;;22.90;54.10;;;;;;5107773;28;20074;-90
2022/07/09 01:59:53;;;;;;;2.75;2.00;;;22.80;54.10;;;;;;5090011;28;20028;-85
2022/07/09 02:02:19;;;;;;;3.83;2.30;;;22.80;54.20;;;;;;5070158;28;20093;-85
2022/07/09 02:04:46;;;;;;;3.42;2.15;;;22.80;54.30;;;;;;5074821;28;20077;-87
2022/07/09 02:07:12;;;;;;;2.72;1.98;;;22.80;54.30;;;;;;5078856;28;20059;-84
2022/07/09 02:09:39;;;;;;;2.90;2.03;;;22.70;54.30;;;;;;5095630;28;20020;-84
2022/07/09 02:12:05;;;;;;;3.80;2.28;;;22.60;54.30;;;;;;5095870;28;20508;-89
2022/07/09 02:14:31;;;;;;;3.30;2.10;;;22.70;54.40;;;;;;5095809;28;20518;-84
2022/07/09 02:16:57;;;;;;;2.70;2.17;;;22.60;54.40;;;;;;5086754;28;20378;-84
2022/07/09 02:19:23;;;;;;;3.38;2.00;;;22.60;54.50;;;;;;5084925;28;20031;-85
2022/07/09 02:21:49;;;;;;;2.97;2.17;;;22.60;54.60;;;;;;5066719;28;20071;-85
2022/07/09 02:24:15;;;;;;;3.60;2.30;;;22.60;54.70;;;;;;5080532;28;20051;-86
2022/07/09 02:26:41;;;;;;;2.97;2.20;;;22.50;54.70;;;;;;5094492;28;20028;-84
2022/07/09 02:29:07;;;;;;;3.53;2.30;;;22.50;54.80;;;;;;5062168;28;20024;-85
2022/07/09 02:31:32;;;;;;;3.55;2.50;;;22.50;54.80;;;;;;5094094;28;20035;-88
2022/07/09 02:33:58;;;;;;;2.10;1.90;;;22.40;54.90;;;;;;5108009;28;20384;-85
2022/07/09 02:36:24;;;;;;;2.88;2.20;;;22.40;54.90;;;;;;5085431;28;20058;-87
2022/07/09 02:38:50;;;;;;;3.92;2.40;;;22.40;54.90;;;;;;5078789;28;20165;-85
2022/07/09 02:41:16;;;;;;;4.10;2.08;;;22.40;55.00;;;;;;5086152;28;20040;-84
2022/07/09 02:43:44;;;;;;;3.20;2.47;;;22.40;55.00;;;;;;5094193;28;20040;-84
2022/07/09 02:46:11;;;;;;;2.38;2.13;;;22.30;55.10;;;;;;5091240;28;20039;-85
2022/07/09 02:48:37;;;;;;;2.92;2.03;;;22.30;55.10;;;;;;5074528;28;20775;-86
2022/07/09 02:51:03;;;;;;;3.80;2.38;;;22.30;55.10;;;;;;5094888;28;20058;-84
2022/07/09 02:53:29;;;;;;;2.40;1.95;;;22.20;55.10;;;;;;5110712;28;20023;-85
2022/07/09 02:55:55;;;;;;;3.58;2.40;;;22.20;55.20;;;;;;5072920;28;20028;-83
2022/07/09 02:58:21;;;;;;;3.03;2.40;;;22.20;55.20;;;;;;5099601;28;20396;-86
2022/07/09 03:00:47;;;;;;;3.58;2.42;;;22.20;55.20;;;;;;5103738;28;20123;-84
2022/07/09 03:03:12;;;;;;;3.78;2.55;;;22.20;55.20;;;;;;5076764;28;20074;-85
2022/07/09 03:05:38;;;;;;;3.83;2.42;;;22.10;55.20;;;;;;5103979;28;20024;-84
2022/07/09 03:08:05;;;;;;;2.17;1.98;;;22.10;55.20;;;;;;5092460;28;20103;-85
2022/07/09 03:10:31;;;;;;;2.67;2.15;;;22.10;55.30;;;;;;5086313;28;20041;-84
2022/07/09 03:12:57;;;;;;;3.30;2.38;;;22.00;55.30;;;;;;5086388;28;20123;-84
2022/07/09 03:15:23;;;;;;;3.47;2.13;;;22.00;55.90;;;;;;5094068;28;20076;-84
2022/07/09 03:17:49;;;;;;;3.10;2.25;;;22.00;55.40;;;;;;5092561;28;20027;-86
2022/07/09 03:20:15;;;;;;;3.15;2.05;;;21.90;55.30;;;;;;5068253;28;20492;-84
2022/07/09 03:22:41;;;;;;;2.38;2.13;;;21.90;55.40;;;;;;5085485;28;20023;-83
2022/07/09 03:25:07;;;;;;;2.97;2.30;;;21.90;55.40;;;;;;5096784;28;21690;-84
2022/07/09 03:27:34;;;;;;;3.25;2.70;;;21.90;55.40;;;;;;5052567;28;20024;-84
2022/07/09 03:30:01;;;;;;;3.50;2.53;;;21.80;55.40;;;;;;5073744;28;20020;-84
2022/07/09 03:32:27;;;;;;;3.17;2.47;;;21.80;55.50;;;;;;5104412;28;20164;-86
2022/07/09 03:34:53;;;;;;;2.42;2.15;;;21.80;55.50;;;;;;5069589;28;20040;-84
2022/07/09 03:37:19;;;;;;;2.78;2.28;;;21.80;55.50;;;;;;5072520;28;20027;-89
2022/07/09 03:39:46;;;;;;;4.47;2.50;;;21.70;55.60;;;;;;5084759;28;20032;-84
2022/07/09 03:42:12;;;;;;;3.42;2.50;;;21.70;55.60;;;;;;5092052;28;20043;-88
2022/07/09 03:44:38;;;;;;;3.47;2.30;;;21.70;55.60;;;;;;5092719;28;20043;-85
2022/07/09 03:47:05;;;;;;;2.78;2.35;;;21.70;55.70;;;;;;5069535;28;20169;-85
2022/07/09 03:49:31;;;;;;;3.05;2.40;;;21.60;55.70;;;;;;5091229;28;20028;-85
2022/07/09 03:51:57;;;;;;;3.65;2.35;;;21.60;55.70;;;;;;5091773;28;20024;-85
2022/07/09 03:54:23;;;;;;;2.95;2.25;;;21.60;55.80;;;;;;5102615;28;20493;-85
2022/07/09 03:56:49;;;;;;;2.60;2.20;;;21.60;56.20;;;;;;5108643;28;20031;-87
2022/07/09 03:59:15;;;;;;;3.70;2.28;;;21.60;55.90;;;;;;5100684;28;20384;-84
2022/07/09 04:01:41;;;;;;;3.67;2.50;;;21.50;55.90;;;;;;5055512;28;20038;-84
2022/07/09 04:04:07;;;;;;;3.28;2.45;;;21.50;56.00;;;;;;5094924;28;20034;-85
2022/07/09 04:06:33;;;;;;;3.05;2.40;;;21.50;56.00;;;;;;5094749;28;20131;-85
2022/07/09 04:09:03;;;;;;;3.50;2.63;;;21.50;56.10;;;;;;5085715;28;20112;-85
2022/07/09 04:11:31;;;;;;;4.03;2.65;;;21.50;56.10;;;;;;5114169;28;20028;-85
2022/07/09 04:13:58;;;;;;;3.55;2.70;;;21.50;56.20;;;;;;5077589;28;20028;-85
2022/07/09 04:16:23;;;;;;;2.95;2.38;;;21.40;56.20;;;;;;5062389;28;20036;-86
2022/07/09 04:18:49;;;;;;;3.70;2.80;;;21.40;56.20;;;;;;5096640;28;20050;-86
2022/07/09 04:21:16;;;;;;;4.32;2.90;;;21.40;56.20;;;;;;5088986;28;20142;-88
2022/07/09 04:23:42;;;;;;;3.25;2.47;;;21.40;56.30;;;;;;5093330;28;20031;-86
2022/07/09 04:26:09;;;;;;;2.67;2.30;;;21.40;56.30;;;;;;5081286;28;20028;-84
2022/07/09 04:28:38;;;;;;;3.25;2.58;;;21.40;56.30;;;;;;5096272;28;20088;-85
2022/07/09 04:31:04;;;;;;;3.42;2.40;;;21.40;56.40;;;;;;5092179;28;20034;-85
2022/07/09 04:33:29;;;;;;;2.90;2.40;;;21.40;56.40;;;;;;5095507;28;20020;-87
2022/07/09 04:35:55;;;;;;;4.05;2.83;;;21.30;56.40;;;;;;5075417;28;20024;-84
2022/07/09 04:38:21;;;;;;;4.35;2.70;;;21.30;56.40;;;;;;5103561;28;20084;-84
2022/07/09 04:40:47;;;;;;;3.28;2.45;;;21.30;56.50;;;;;;5111360;28;20076;-86
2022/07/09 04:43:13;;;;;;;3.42;2.35;;;21.30;56.50;;;;;;5113173;28;20122;-85
2022/07/09 04:45:39;;;;;;;3.53;2.80;;;21.30;56.60;;;;;;5096562;28;20024;-85
2022/07/09 04:48:05;;;;;;;4.65;3.28;;;21.30;56.60;;;;;;5082648;28;20035;-84
2022/07/09 04:50:30;;;;;;;4.00;2.70;;;21.30;56.60;;;;;;5076547;28;20400;-84
2022/07/09 04:52:56;;;;;;;3.97;2.88;;;21.30;56.70;;;;;;5087040;28;20460;-87
2022/07/09 04:55:22;;;;;;;4.00;2.85;;;21.30;56.70;;;;;;5077502;28;20451;-85
2022/07/09 04:57:48;;;;;;;3.38;2.60;;;21.30;56.70;;;;;;5096770;28;20023;-85
2022/07/09 05:00:15;;;;;;;3.58;2.67;;;21.20;56.70;;;;;;5063787;28;20035;-85
2022/07/09 05:02:42;;;;;;;3.67;2.85;;;21.30;56.80;;;;;;5097053;28;20032;-84
2022/07/09 05:05:08;;;;;;;3.78;3.00;;;21.30;56.80;;;;;;5072037;28;20108;-85
2022/07/09 05:07:34;;;;;;;3.58;2.60;;;21.30;56.90;;;;;;5084778;28;20016;-85
2022/07/09 05:10:01;;;;;;;3.55;2.50;;;21.20;56.80;;;;;;5071437;28;20035;-86
2022/07/09 05:12:27;;;;;;;4.15;2.72;;;21.20;56.80;;;;;;5093708;28;20132;-87
2022/07/09 05:14:54;;;;;;;3.83;2.90;;;21.20;56.90;;;;;;5091329;28;20043;-87
2022/07/09 05:17:20;;;;;;;4.20;2.58;;;21.30;57.00;;;;;;5087219;28;20031;-85
2022/07/09 05:19:46;;;;;;;3.70;2.97;;;21.20;57.60;;;;;;5093169;28;20036;-85
2022/07/09 05:22:11;;;;;;;3.42;2.70;;;21.20;57.00;;;;;;5076029;28;20048;-86
2022/07/09 05:24:37;;;;;;;4.50;3.00;;;21.20;57.00;;;;;;5095101;28;20448;-85
2022/07/09 05:27:03;;;;;;;4.32;3.05;;;21.20;57.10;;;;;;5061598;28;20030;-84
2022/07/09 05:29:30;;;;;;;4.90;3.00;;;21.20;57.10;;;;;;5092812;28;20020;-86
2022/07/09 05:31:57;;;;;;;3.60;2.75;;;21.20;57.20;;;;;;5082660;28;20435;-85
2022/07/09 05:34:24;;;;;;;3.58;2.70;;;21.20;57.20;;;;;;5086681;28;20035;-81
2022/07/09 05:36:51;;;;;;;3.75;2.92;;;21.20;57.20;;;;;;5086062;28;20805;-83
2022/07/09 05:39:18;;;;;;;4.03;2.95;;;21.20;57.30;;;;;;5068684;28;20472;-84
2022/07/09 05:41:43;;;;;;;4.13;3.05;;;21.20;57.30;;;;;;5066849;28;20047;-84
2022/07/09 05:44:10;;;;;;;4.10;2.97;;;21.20;57.30;;;;;;5066080;28;20056;-83
2022/07/09 05:46:35;;;;;;;5.20;3.15;;;21.20;57.30;;;;;;5079862;28;20392;-83
2022/07/09 05:49:02;;;;;;;3.63;3.08;;;21.20;57.40;;;;;;5088596;28;20030;-83
2022/07/09 05:51:28;;;;;;;3.85;3.05;;;21.20;57.40;;;;;;5065894;28;20039;-82
2022/07/09 05:53:54;;;;;;;4.13;3.10;;;21.20;57.40;;;;;;5088680;28;20362;-83
2022/07/09 05:56:20;;;;;;;4.57;3.00;;;21.20;57.40;;;;;;5080663;28;20080;-83
2022/07/09 05:58:46;;;;;;;4.40;3.10;;;21.30;57.60;;;;;;5065984;28;20093;-82
2022/07/09 06:01:13;;;;;;;5.43;3.45;;;21.30;57.60;;;;;;5068476;28;20044;-82
2022/07/09 06:03:39;;;;;;;4.55;3.33;;;21.30;57.60;;;;;;5107410;28;20032;-81
2022/07/09 06:06:06;;;;;;;3.33;2.67;;;21.30;57.60;;;;;;5073626;28;20479;-81
2022/07/09 06:08:33;;;;;;;4.07;2.88;;;21.30;57.60;;;;;;5085431;28;20127;-81
2022/07/09 06:10:59;;;;;;;4.55;3.05;;;21.30;57.60;;;;;;5087733;28;20081;-83
2022/07/09 06:13:25;;;;;;;4.07;3.17;;;21.30;57.60;;;;;;5076381;28;20067;-81
2022/07/09 06:15:52;;;;;;;3.58;2.67;;;21.30;57.60;;;;;;5070986;28;20052;-82
2022/07/09 06:18:18;;;;;;;4.18;2.95;;;21.30;57.60;;;;;;5085173;28;20077;-83
2022/07/09 06:20:45;;;;;;;3.67;2.90;;;21.40;57.60;;;;;;5090349;28;20085;-83
2022/07/09 06:23:11;;;;;;;4.00;2.92;;;21.40;57.60;;;;;;5064749;28;20036;-83
2022/07/09 06:25:38;;;;;;;4.20;3.08;;;21.40;57.60;;;;;;5089701;28;20162;-84
2022/07/09 06:28:04;;;;;;;4.25;2.80;;;21.40;57.70;;;;;;5081504;28;20032;-82
2022/07/09 06:30:31;;;;;;;3.50;2.83;;;21.40;57.60;;;;;;5070324;28;20035;-83
2022/07/09 06:32:57;;;;;;;4.28;2.90;;;21.40;57.60;;;;;;5084927;28;20043;-83
2022/07/09 06:35:22;;;;;;;4.28;2.67;;;21.40;58.30;;;;;;5090450;28;20051;-83
2022/07/09 06:37:48;;;;;;;3.60;2.47;;;21.50;57.60;;;;;;5071509;28;20123;-83
2022/07/09 06:40:14;;;;;;;4.32;2.95;;;21.50;57.60;;;;;;5086228;28;20032;-83
2022/07/09 06:42:40;;;;;;;3.97;2.70;;;21.50;57.60;;;;;;5069089;28;20384;-84
2022/07/09 06:45:16;;;;;;;4.35;2.60;;;21.50;57.60;;;;;;5092165;28;20040;-83
2022/07/09 06:47:42;;;;;;;2.85;2.30;;;21.60;57.60;;;;;;5068720;28;20482;-80
2022/07/09 06:50:08;;;;;;;3.92;2.60;;;21.60;57.60;;;;;;5057005;28;20035;-82
2022/07/09 06:52:34;;;;;;;3.00;2.53;;;21.60;57.60;;;;;;5066575;28;20036;-82
2022/07/09 06:54:59;;;;;;;3.63;2.42;;;21.60;57.60;;;;;;5051745;28;20023;-82
2022/07/09 06:57:25;;;;;;;4.28;2.70;;;21.70;57.70;;;;;;5083211;28;20102;-82
2022/07/09 06:59:52;;;;;;;3.15;2.42;;;21.70;57.70;;;;;;5060694;28;20089;-82
2022/07/09 07:02:18;;;;;;;2.83;2.28;;;21.70;57.70;;;;;;5100665;28;20066;-82
2022/07/09 07:04:43;;;;;;;3.15;2.45;;;21.70;57.70;;;;;;5092942;28;20411;-82
2022/07/09 07:07:09;;;;;;;3.10;2.35;;;21.70;57.60;;;;;;5087373;28;20433;-82
2022/07/09 07:09:35;;;;;;;4.10;2.90;;;21.80;57.70;;;;;;5087575;28;20052;-82
2022/07/09 07:12:00;;;;;;;3.13;2.25;;;21.80;57.60;;;;;;5070402;28;20122;-82
2022/07/09 07:14:26;;;;;;;3.20;2.45;;;21.80;57.60;;;;;;5100339;28;20032;-83
2022/07/09 07:16:53;;;;;;;3.55;2.28;;;21.80;57.60;;;;;;5067385;28;20028;-81
2022/07/09 07:19:20;;;;;;;3.78;2.40;;;21.90;57.70;;;;;;5067250;28;20036;-83
2022/07/09 07:21:47;;;;;;;3.25;2.30;;;21.90;57.70;;;;;;5107283;28;20035;-84
2022/07/09 07:24:13;;;;;;;3.35;2.40;;;21.90;57.70;;;;;;5076855;28;20090;-83
2022/07/09 07:26:39;;;;;;;3.05;2.40;;;22.00;57.70;;;;;;5089148;28;20116;-82
2022/07/09 07:29:05;;;;;;;3.40;2.35;;;22.00;57.70;;;;;;5088089;28;20024;-85
2022/07/09 07:31:31;;;;;;;3.38;2.58;;;22.00;57.60;;;;;;5067768;28;20019;-84
2022/07/09 07:33:57;;;;;;;3.78;2.45;;;22.00;57.60;;;;;;5077615;28;20032;-87
2022/07/09 07:36:23;;;;;;;4.55;2.38;;;22.10;57.60;;;;;;5101811;28;20043;-83
2022/07/09 07:38:49;;;;;;;3.17;2.30;;;22.10;57.50;;;;;;5112429;28;20039;-86
2022/07/09 07:41:18;;;;;;;3.10;2.10;;;22.10;57.50;;;;;;5065582;28;20484;-83
2022/07/09 07:43:44;;;;;;;2.88;1.98;;;22.20;57.50;;;;;;5094766;28;20537;-83
2022/07/09 07:46:11;;;;;;;3.30;2.22;;;22.20;57.40;;;;;;5080934;28;20384;-83
2022/07/09 07:48:37;;;;;;;3.15;2.05;;;22.30;57.40;;;;;;5069611;28;20502;-82
2022/07/09 07:51:03;;;;;;;2.88;2.15;;;22.30;57.30;;;;;;5080830;28;20157;-83
2022/07/09 07:53:33;;;;;;;2.67;2.08;;;22.30;57.30;;;;;;5098507;28;20114;-84
2022/07/09 07:56:03;;;;;;;2.10;1.83;;;22.40;57.30;;;;;;5080154;28;20092;-83
2022/07/09 07:58:29;;;;;;;2.85;2.00;;;22.40;57.20;;;;;;5101641;28;20031;-83
2022/07/09 08:00:55;;;;;;;2.72;1.92;;;22.50;57.20;;;;;;5089574;28;20032;-85
2022/07/09 08:03:20;;;;;;;2.70;1.90;;;22.50;57.10;;;;;;5081235;28;20035;-84
2022/07/09 08:05:46;;;;;;;2.20;1.73;;;22.60;57.00;;;;;;5081558;28;20386;-84
2022/07/09 08:08:13;;;;;;;2.95;2.10;;;22.60;56.90;;;;;;5081760;28;20042;-83
2022/07/09 08:10:39;;;;;;;2.40;1.80;;;22.70;56.90;;;;;;5116568;28;20447;-83
2022/07/09 08:13:05;;;;;;;2.30;1.75;;;22.70;56.80;;;;;;5089655;28;20012;-84
2022/07/09 08:15:30;;;;;;;2.67;1.80;;;22.90;56.80;;;;;;5081479;28;20101;-83
2022/07/09 08:17:56;;;;;;;2.15;1.63;;;22.90;56.70;;;;;;5097895;28;20088;-83
2022/07/09 08:20:22;;;;;;;2.75;1.67;;;22.90;56.60;;;;;;5098339;28;20063;-83
2022/07/09 08:22:48;;;;;;;2.30;1.73;;;23.00;56.60;;;;;;5076497;28;20024;-83
2022/07/09 08:25:14;;;;;;;2.35;1.63;;;23.00;56.50;;;;;;5078093;28;20416;-83
2022/07/09 08:27:40;;;;;;;2.00;1.58;;;23.10;56.50;;;;;;5087417;28;20072;-83
2022/07/09 08:30:06;;;;;;;2.85;1.60;;;23.20;56.50;;;;;;5097647;28;20032;-83
2022/07/09 08:32:32;;;;;;;2.40;1.48;;;23.20;56.40;;;;;;5097592;28;20476;-84
2022/07/09 08:34:58;;;;;;;2.47;1.58;;;23.30;56.40;;;;;;5115570;28;20495;-83
2022/07/09 08:37:24;;;;;;;1.92;1.58;;;23.30;56.30;;;;;;5115293;28;20023;-83
2022/07/09 08:39:50;;;;;;;1.88;1.58;;;23.40;56.20;;;;;;5115539;28;20110;-83
2022/07/09 08:42:16;;;;;;;1.83;1.63;;;23.50;56.30;;;;;;5081804;28;20523;-83
2022/07/09 08:44:46;;;;;;;2.20;1.60;;;23.50;56.10;;;;;;5116251;28;20047;-83
2022/07/09 08:47:14;;;;;;;2.00;1.60;;;23.60;56.10;;;;;;5093413;28;20480;-84
2022/07/09 08:49:41;;;;;;;2.03;1.52;;;23.60;56.00;;;;;;5085709;28;20130;-88
2022/07/09 08:52:07;;;;;;;2.47;1.50;;;23.70;56.00;;;;;;5080712;28;20032;-83
2022/07/09 08:54:37;;;;;;;1.48;1.30;;;23.70;56.00;;;;;;5081147;28;20078;-84
2022/07/09 08:57:05;;;;;;;1.70;1.50;;;23.80;55.90;;;;;;5097932;28;20024;-85
2022/07/09 08:59:31;;;;;;;1.73;1.30;;;23.80;55.80;;;;;;5116005;28;20027;-84
2022/07/09 09:01:56;;;;;;;1.45;1.30;;;23.90;55.80;;;;;;5096927;28;20051;-84
2022/07/09 09:04:23;;;;;;;2.28;1.52;;;24.00;55.80;;;;;;5094251;28;20048;-84
2022/07/09 09:06:50;;;;;;;2.22;1.55;;;24.00;55.70;;;;;;5103526;27;20032;-85
2022/07/09 09:09:19;;;;;;;2.53;1.70;;;24.10;55.70;;;;;;5062369;28;20020;-83
2022/07/09 09:11:52;;;;;;;3.60;2.15;;;24.10;56.00;;;;;;5076539;28;20047;-89
2022/07/09 09:14:21;;;;;;;3.42;2.50;;;24.20;56.40;;;;;;5091435;28;20046;-86
2022/07/09 09:16:50;;;;;;;3.55;2.65;;;24.20;56.70;;;;;;5090253;28;20114;-90
2022/07/09 09:19:23;;;;;;;4.82;2.83;;;24.30;57.00;;;;;;5109547;28;20032;-88
2022/07/09 09:21:56;;;;;;;4.82;3.25;;;24.30;57.20;;;;;;5094250;28;20122;-87
2022/07/09 09:24:29;;;;;;;4.40;3.08;;;24.30;57.40;;;;;;5103137;28;20444;-88
2022/07/09 09:27:02;;;;;;;4.32;2.92;;;24.40;57.70;;;;;;5106158;28;20447;-88
2022/07/09 09:29:51;;;;;;;3.83;2.60;;;24.40;57.80;;;;;;5079759;28;20030;-86
2022/07/09 09:32:31;;;;;;;4.13;3.15;;;24.50;57.90;;;;;;5092926;28;20118;-89
2022/07/09 09:35:10;;;;;;;4.88;3.17;;;24.50;57.90;;;;;;5084008;28;20023;-87
2022/07/09 09:37:36;;;;;;;5.75;3.58;;;24.50;58.00;;;;;;5089697;28;20031;-86
2022/07/09 09:40:15;;;;;;;5.07;3.70;;;24.50;57.90;;;;;;5103265;28;20028;-87
2022/07/09 09:42:45;;;;;;;4.40;3.47;;;24.60;58.10;;;;;;5092904;28;20051;-86
2022/07/09 09:45:23;;;;;;;5.03;3.55;;;24.60;58.00;;;;;;5078175;28;20074;-91
2022/07/09 09:47:53;;;;;;;5.03;3.60;;;24.60;58.20;;;;;;5071900;28;20024;-95
2022/07/09 09:50:26;;;;;;;6.97;4.18;;;24.70;58.20;;;;;;5091002;28;20028;-93
2022/07/09 09:53:04;;;;;;;4.50;3.42;;;24.70;58.20;;;;;;5110034;28;20481;-92
2022/07/09 09:55:31;;;;;;;4.53;3.42;;;24.70;58.20;;;;;;5071562;28;20050;-90
2022/07/09 09:58:00;;;;;;;6.38;3.45;;;24.80;58.10;;;;;;5078800;28;20475;-92
2022/07/09 10:00:28;;;;;;;4.35;3.47;;;24.80;58.10;;;;;;5095645;28;20459;-91
2022/07/09 10:02:57;;;;;;;4.72;3.65;;;24.80;58.10;;;;;;5094166;28;20044;-93
2022/07/09 10:05:25;;;;;;;4.57;3.40;;;24.80;58.20;;;;;;5071564;28;20160;-92
2022/07/09 10:08:06;;;;;;;4.95;3.30;;;24.90;58.30;;;;;;5071697;28;20073;-89
2022/07/09 10:10:34;;;;;;;4.78;3.25;;;24.90;58.30;;;;;;5091806;28;20456;-90
2022/07/09 10:13:00;;;;;;;4.45;3.47;;;24.90;58.30;;;;;;5074522;28;20054;-83
2022/07/09 10:15:26;;;;;;;5.45;3.28;;;24.90;58.30;;;;;;5070617;28;20436;-83
2022/07/09 10:17:53;;;;;;;3.78;3.10;;;25.00;58.40;;;;;;5086640;28;20016;-81
2022/07/09 10:20:31;;;;;;;3.65;3.10;;;25.00;58.30;;;;;;5110423;28;20027;-82
2022/07/09 10:22:57;;;;;;;4.43;3.25;;;25.00;58.20;;;;;;5105575;28;20027;-82
2022/07/09 10:25:31;;;;;;;4.00;3.15;;;25.10;58.10;;;;;;5087428;28;20143;-82
2022/07/09 10:27:57;;;;;;;3.88;2.88;;;25.10;58.00;;;;;;5085311;28;20115;-83
2022/07/09 10:30:28;;;;;;;3.45;2.47;;;25.10;57.80;;;;;;5086151;28;20035;-84
2022/07/09 10:33:12;;;;;;;3.45;2.33;;;25.10;57.70;;;;;;5108288;28;20486;-83
2022/07/09 10:35:45;;;;;;;3.42;2.55;;;25.20;57.70;;;;;;5099319;28;20032;-82
2022/07/09 10:38:13;;;;;;;3.22;2.40;;;25.20;57.60;;;;;;5105218;28;20024;-82
2022/07/09 10:40:41;;;;;;;3.13;2.40;;;25.30;57.50;;;;;;5110135;28;20040;-80
2022/07/09 10:43:07;;;;;;;3.35;2.35;;;25.30;58.00;;;;;;5104706;28;20036;-82
2022/07/09 10:45:41;;;;;;;3.08;1.95;;;25.40;57.30;;;;;;5101960;28;20081;-82
2022/07/09 10:48:09;;;;;;;2.90;2.05;;;25.40;57.20;;;;;;5100677;28;20026;-88
2022/07/09 10:50:41;;;;;;;2.97;1.85;;;25.40;57.00;;;;;;5092468;28;20459;-90
2022/07/09 10:53:08;;;;;;;1.83;1.50;;;25.50;56.80;;;;;;5108764;28;20031;-90
2022/07/09 10:55:34;;;;;;;1.77;1.33;;;25.50;56.60;;;;;;5084404;28;20035;-91
2022/07/09 10:58:02;;;;;;;2.33;1.60;;;25.50;56.30;;;;;;5090633;28;20020;-91
2022/07/09 11:00:32;;;;;;;1.30;1.17;;;25.60;56.30;;;;;;5084469;28;20020;-94
2022/07/09 11:03:04;;;;;;;1.20;1.10;;;25.60;55.90;;;;;;5089295;28;20034;-90
2022/07/09 11:05:44;;;;;;;1.33;1.20;;;25.70;56.00;;;;;;5108256;28;20469;-88
2022/07/09 11:08:13;;;;;;;1.00;0.93;;;25.70;55.90;;;;;;5087124;28;20024;-86
2022/07/09 11:10:41;;;;;;;1.00;0.80;;;25.70;55.60;;;;;;5083137;28;20683;-87
2022/07/09 11:13:09;;;;;;;0.98;0.98;;;25.80;55.40;;;;;;5087277;28;20115;-88
2022/07/09 11:15:38;;;;;;;3.10;1.40;;;25.80;55.30;;;;;;5110471;28;20128;-87
2022/07/09 11:18:06;;;;;;;1.00;0.90;;;25.90;55.20;;;;;;5077022;28;20035;-83
2022/07/09 11:20:38;;;;;;;1.63;1.00;;;25.90;55.00;;;;;;5091979;28;20032;-83
2022/07/09 11:23:04;;;;;;;1.60;1.17;;;25.90;55.00;;;;;;5073035;28;20024;-85
2022/07/09 11:25:30;;;;;;;2.05;1.20;;;26.00;54.80;;;;;;5090732;28;20039;-84
2022/07/09 11:27:56;;;;;;;1.35;1.10;;;26.00;54.70;;;;;;5096138;28;20448;-84
2022/07/09 11:30:25;;;;;;;2.50;1.15;;;26.00;54.60;;;;;;5093161;28;20039;-85
2022/07/09 11:32:52;;;;;;;1.20;1.10;;;26.10;54.60;;;;;;5101866;28;20110;-84
2022/07/09 11:35:32;;;;;;;1.50;1.10;;;26.10;54.50;;;;;;5090392;28;20028;-84
2022/07/09 11:38:01;;;;;;;1.10;1.00;;;26.10;54.30;;;;;;5075730;28;20047;-91
2022/07/09 11:40:30;;;;;;;1.55;1.10;;;26.20;54.10;;;;;;5080153;28;20028;-84
2022/07/09 11:42:56;;;;;;;1.30;0.90;;;26.10;53.90;;;;;;5113795;28;20040;-91
2022/07/09 11:45:22;;;;;;;1.27;1.10;;;26.10;53.60;;;;;;5070525;28;20058;-88
2022/07/09 11:48:01;;;;;;;1.08;0.98;;;26.20;53.50;;;;;;5096337;28;20019;-87
2022/07/09 11:50:27;;;;;;;1.33;1.00;;;26.20;53.30;;;;;;5094608;28;20032;-83
2022/07/09 11:52:53;;;;;;;0.73;0.73;;;26.20;53.20;;;;;;5091896;28;20035;-86
2022/07/09 11:55:21;;;;;;;0.95;0.90;;;26.30;53.30;;;;;;5099190;28;20222;-86
2022/07/09 11:57:52;;;;;;;1.60;1.10;;;26.20;53.00;;;;;;5112114;27;20016;-86
2022/07/09 12:00:27;;;;;;;0.80;0.80;;;26.30;52.90;;;;;;5088498;28;20020;-87
2022/07/09 12:02:55;;;;;;;0.80;0.80;;;26.20;52.40;;;;;;5109792;28;20038;-85
2022/07/09 12:05:32;;;;;;;1.88;0.90;;;26.30;52.30;;;;;;5088002;28;20028;-87
2022/07/09 12:08:01;;;;;;;1.23;1.00;;;26.30;52.20;;;;;;5083105;28;20081;-85
2022/07/09 12:10:30;;;;;;;1.75;0.90;;;26.30;52.10;;;;;;5113648;28;20024;-89
2022/07/09 12:13:02;;;;;;;0.65;0.65;;;26.30;52.10;;;;;;5071996;28;20452;-88
2022/07/09 12:15:29;;;;;;;1.10;0.77;;;26.30;52.00;;;;;;5096983;28;20106;-91
2022/07/09 12:18:03;;;;;;;0.90;0.90;;;26.30;51.90;;;;;;5106839;28;20410;-89
2022/07/09 12:20:35;;;;;;;1.42;0.80;;;26.40;51.70;;;;;;5085221;28;20023;-87
2022/07/09 12:23:03;;;;;;;1.30;0.93;;;26.40;51.50;;;;;;5104656;28;20019;-88
2022/07/09 12:25:29;;;;;;;2.08;0.90;;;26.40;51.30;;;;;;5089509;28;20030;-89
2022/07/09 12:27:54;;;;;;;1.25;0.80;;;26.40;51.10;;;;;;5059030;28;20392;-87
2022/07/09 12:30:20;;;;;;;0.90;0.80;;;26.40;50.90;;;;;;5095524;28;20020;-86
2022/07/09 12:32:46;;;;;;;1.05;1.00;;;26.40;50.80;;;;;;5096393;28;20031;-87
2022/07/09 12:35:15;;;;;;;1.15;1.05;;;26.40;50.70;;;;;;5096158;28;20028;-86
2022/07/09 12:37:41;;;;;;;1.00;0.90;;;26.40;50.70;;;;;;5096019;28;20027;-88
2022/07/09 12:40:09;;;;;;;1.20;0.80;;;26.40;50.70;;;;;;5073753;28;20027;-89
2022/07/09 12:42:35;;;;;;;1.17;0.82;;;26.40;50.70;;;;;;5111700;28;20039;-87
2022/07/09 12:45:09;;;;;;;1.02;0.90;;;26.40;50.10;;;;;;5102277;28;20052;-87
2022/07/09 12:47:41;;;;;;;1.02;0.80;;;26.40;50.00;;;;;;5094334;28;20134;-89